Tujunga, CA (91043)

7:00 PM PDT on September 15, 2014 (GMT -0700)
Tujunga | Change Station
CLOSE
Current Station
Personal Weather Station
Location: Tujunga, CA
Elevation: 1850 ft
Nearby Weather Stations
Active Advisory: Excessive Heat Warning Active Notice: Record Report

Elev 1850 ft 34.26 °N, 118.29 °W | Updated 6 seconds ago

Clear
Clear
92.6 °F
Feels Like 91 °F
N
0.0
Wind Variable Wind from West
Gusts 4.0 mph

Today
High -- | Low -- °F
--% Chance of Precip.
Yesterday
High -- | Low -- °F
Precip. -- in
6:36 AM 6:59 PM
Waning Gibbous, 50% visible
Pressure 29.71 in
Visibility 10.0 miles
Clouds Clear
Heat Index 91 °F
Dew Point 58 °F
Humidity 31%
Rainfall 0.00 in
Snow Depth 0 in , 0 in , 0 in
UV 0.0 out of 12
Pollen 7.00 out of 12
Ozone Good
PM2.5 Moderate
Flu Activity Not available.
METAR KBUR 160153Z 29006KT 10SM CLR 36/10 A2975 RMK AO2 SLP059 T03610100

More Conditions Fewer Conditions

Pressure 29.71 in
Visibility 10.0 miles
Clouds Clear
Heat Index 91 °F
Dew Point 58 °F
Humidity 31%
Rainfall 0.00 in
Snow Depth 0 in , 0 in , 0 in
UV 0.0 out of 12
Pollen 7.00 out of 12
Ozone Good
PM2.5 Moderate
Flu Activity Not available.
METAR KBUR 160153Z 29006KT 10SM CLR 36/10 A2975 RMK AO2 SLP059 T03610100

More Conditions Fewer Conditions

10-Day Weather Forecast

Almanac

Astronomy

Sep. 15, 2014 Rise Set
Actual Time 6:36 AM PDT 6:59 PM PDT
Civil Twilight 6:11 AM PDT 7:24 PM PDT
Nautical Twilight 5:41 AM PDT 7:54 PM PDT
Astronomical Twilight 5:11 AM PDT 8:24 PM PDT
Moon No Moon Rise 1:25 PM PDT (9/15)
Length of Visible Light 13h 13m
Length of Day
12h 23m
Tomorrow will be 2m 7s shorter.
Waning Gibbous, 50% of the Moon is Illuminated
Today
Waning Gibbous
Sep 15
Last Quarter
Sep 24
New
Oct 1
First Quarter
Oct 8
Full

Today's Extremes

State Highs State Lows

Community

WunderPhotos

Upload Photos

1,753,650 photos uploaded!

WunderBlogs® & News

Nearby

Air Quality

  Air Quality AQ Index Pollutant
Yesterday Moderate
OZONE
Yesterday Moderate
PM2.5
Current Moderate
PM2.5
Current Good
OZONE
Tuesday Moderate
OZONE
Tuesday Good
PM10
Tuesday Good
CO
Tuesday Good
NO2

Snow Depth

Station Depth Elevation
Adin Mountain 0 in 6200 ft
Spratt Creek 0 in 6200 ft
Summit Meadow 0 in 9122 ft
CSS Lab 1 in 6900 ft

Earthquake Activity

City Distance Mag. Time & Date
Inyokern, California 116 miles 3.2 5:56 PM PDT
2014-09-14
San Jacinto, California 82 miles 3.0 3:16 PM PDT
2014-09-14
Minimum magnitude displayed is 2.5.

Coastal Water Temperatures

Place Temperature
Santa Monica Pier 66.9 °F
Los Angeles, CA 69.1 °F
La Jolla, CA 66.9 °F

Nearby Weather Stations